sensor_id;sensor_type;location;lat;lon;timestamp;pressure;altitude;pressure_sealevel;temperature;humidity
4469;BME280;2247;42.666;23.292;2023-03-05T00:00:10;93907.94;;;11.84;57.27
4469;BME280;2247;42.666;23.292;2023-03-05T00:02:38;93906.38;;;11.83;57.59
4469;BME280;2247;42.666;23.292;2023-03-05T00:05:08;93904.53;;;11.83;57.58
4469;BME280;2247;42.666;23.292;2023-03-05T00:07:35;93905.13;;;11.80;57.51
4469;BME280;2247;42.666;23.292;2023-03-05T00:10:03;93899.63;;;11.77;57.48
4469;BME280;2247;42.666;23.292;2023-03-05T00:12:31;93896.31;;;11.85;57.32
4469;BME280;2247;42.666;23.292;2023-03-05T00:14:58;93877.25;;;11.74;56.93
4469;BME280;2247;42.666;23.292;2023-03-05T00:17:25;93892.69;;;11.81;57.22
4469;BME280;2247;42.666;23.292;2023-03-05T00:19:51;93878.44;;;11.82;57.07
4469;BME280;2247;42.666;23.292;2023-03-05T00:22:19;93890.00;;;11.67;56.81
4469;BME280;2247;42.666;23.292;2023-03-05T00:24:49;93882.94;;;11.63;56.90
4469;BME280;2247;42.666;23.292;2023-03-05T00:27:16;93886.63;;;11.62;57.45
4469;BME280;2247;42.666;23.292;2023-03-05T00:29:42;93885.69;;;11.71;57.19
4469;BME280;2247;42.666;23.292;2023-03-05T00:32:09;93878.81;;;11.75;56.68
4469;BME280;2247;42.666;23.292;2023-03-05T00:34:36;93885.50;;;11.68;56.89
4469;BME280;2247;42.666;23.292;2023-03-05T00:37:03;93876.06;;;11.62;57.31
4469;BME280;2247;42.666;23.292;2023-03-05T00:39:31;93870.91;;;11.57;57.36
4469;BME280;2247;42.666;23.292;2023-03-05T00:41:58;93868.91;;;11.49;57.97
4469;BME280;2247;42.666;23.292;2023-03-05T00:44:25;93870.75;;;11.48;57.76
4469;BME280;2247;42.666;23.292;2023-03-05T00:46:52;93861.31;;;11.28;57.75
4469;BME280;2247;42.666;23.292;2023-03-05T00:49:19;93861.91;;;11.25;57.40
4469;BME280;2247;42.666;23.292;2023-03-05T00:51:46;93856.56;;;11.30;57.17
4469;BME280;2247;42.666;23.292;2023-03-05T00:54:13;93860.06;;;11.26;57.18
4469;BME280;2247;42.666;23.292;2023-03-05T00:56:41;93856.59;;;11.12;56.84
4469;BME280;2247;42.666;23.292;2023-03-05T00:59:08;93856.94;;;11.05;56.78
4469;BME280;2247;42.666;23.292;2023-03-05T01:01:35;93849.03;;;11.05;56.99
4469;BME280;2247;42.666;23.292;2023-03-05T01:04:02;93853.94;;;11.12;56.64
4469;BME280;2247;42.666;23.292;2023-03-05T01:06:29;93848.16;;;11.10;56.30
4469;BME280;2247;42.666;23.292;2023-03-05T01:08:56;93854.31;;;11.05;56.41
4469;BME280;2247;42.666;23.292;2023-03-05T01:11:23;93836.63;;;11.05;56.23
4469;BME280;2247;42.666;23.292;2023-03-05T01:13:52;93834.28;;;11.04;55.82
4469;BME280;2247;42.666;23.292;2023-03-05T01:16:19;93838.53;;;11.00;55.88
4469;BME280;2247;42.666;23.292;2023-03-05T01:18:45;93849.88;;;11.00;55.76
4469;BME280;2247;42.666;23.292;2023-03-05T01:21:12;93841.56;;;11.12;55.41
4469;BME280;2247;42.666;23.292;2023-03-05T01:23:39;93834.63;;;11.16;55.10
4469;BME280;2247;42.666;23.292;2023-03-05T01:26:06;93831.56;;;11.09;55.04
4469;BME280;2247;42.666;23.292;2023-03-05T01:28:34;93829.25;;;11.21;55.16
4469;BME280;2247;42.666;23.292;2023-03-05T01:31:07;93824.41;;;11.28;54.63
4469;BME280;2247;42.666;23.292;2023-03-05T01:33:35;93810.38;;;11.14;54.67
4469;BME280;2247;42.666;23.292;2023-03-05T01:36:02;93824.06;;;11.16;54.71
4469;BME280;2247;42.666;23.292;2023-03-05T01:38:31;93827.06;;;11.10;55.03
4469;BME280;2247;42.666;23.292;2023-03-05T01:40:58;93823.03;;;10.98;55.07
4469;BME280;2247;42.666;23.292;2023-03-05T01:43:26;93825.09;;;10.83;54.89
4469;BME280;2247;42.666;23.292;2023-03-05T01:46:32;93828.31;;;10.80;55.02
4469;BME280;2247;42.666;23.292;2023-03-05T01:49:07;93825.63;;;10.85;55.00
4469;BME280;2247;42.666;23.292;2023-03-05T01:51:38;93812.06;;;10.73;54.65
4469;BME280;2247;42.666;23.292;2023-03-05T01:54:08;93836.34;;;10.88;54.41
4469;BME280;2247;42.666;23.292;2023-03-05T01:56:37;93831.31;;;10.92;54.38
4469;BME280;2247;42.666;23.292;2023-03-05T01:59:05;93834.38;;;10.99;54.41
4469;BME280;2247;42.666;23.292;2023-03-05T02:01:40;93828.50;;;11.02;54.50
4469;BME280;2247;42.666;23.292;2023-03-05T02:04:08;93836.00;;;10.95;54.48
4469;BME280;2247;42.666;23.292;2023-03-05T02:06:37;93829.75;;;10.91;54.38
4469;BME280;2247;42.666;23.292;2023-03-05T02:09:05;93833.34;;;10.95;54.59
4469;BME280;2247;42.666;23.292;2023-03-05T02:11:32;93831.31;;;10.92;54.51
4469;BME280;2247;42.666;23.292;2023-03-05T02:13:59;93833.06;;;10.96;54.29
4469;BME280;2247;42.666;23.292;2023-03-05T02:16:28;93833.50;;;11.03;54.08
4469;BME280;2247;42.666;23.292;2023-03-05T02:19:02;93830.88;;;11.03;53.76
4469;BME280;2247;42.666;23.292;2023-03-05T02:21:38;93828.72;;;11.05;53.84
4469;BME280;2247;42.666;23.292;2023-03-05T02:24:05;93822.22;;;11.17;53.11
4469;BME280;2247;42.666;23.292;2023-03-05T02:26:32;93823.38;;;11.11;53.29
4469;BME280;2247;42.666;23.292;2023-03-05T02:29:00;93839.34;;;11.00;53.50
4469;BME280;2247;42.666;23.292;2023-03-05T02:31:29;93837.06;;;10.94;53.68
4469;BME280;2247;42.666;23.292;2023-03-05T02:33:56;93839.00;;;10.88;54.10
4469;BME280;2247;42.666;23.292;2023-03-05T02:36:24;93835.56;;;10.88;54.18
4469;BME280;2247;42.666;23.292;2023-03-05T02:38:52;93837.13;;;10.89;53.92
4469;BME280;2247;42.666;23.292;2023-03-05T02:41:22;93836.16;;;10.85;54.62
4469;BME280;2247;42.666;23.292;2023-03-05T02:43:49;93837.94;;;10.89;54.64
4469;BME280;2247;42.666;23.292;2023-03-05T02:46:16;93837.41;;;10.87;54.65
4469;BME280;2247;42.666;23.292;2023-03-05T02:48:44;93823.19;;;10.70;54.84
4469;BME280;2247;42.666;23.292;2023-03-05T02:51:10;93842.97;;;10.67;55.10
4469;BME280;2247;42.666;23.292;2023-03-05T02:53:37;93837.63;;;10.72;55.43
4469;BME280;2247;42.666;23.292;2023-03-05T02:56:06;93841.19;;;10.62;56.09
4469;BME280;2247;42.666;23.292;2023-03-05T02:58:32;93849.66;;;10.59;55.97
4469;BME280;2247;42.666;23.292;2023-03-05T03:00:59;93843.16;;;10.52;56.22
4469;BME280;2247;42.666;23.292;2023-03-05T03:03:26;93843.53;;;10.45;56.54
4469;BME280;2247;42.666;23.292;2023-03-05T03:05:53;93846.91;;;10.27;57.59
4469;BME280;2247;42.666;23.292;2023-03-05T03:08:20;93843.00;;;10.24;57.50
4469;BME280;2247;42.666;23.292;2023-03-05T03:10:46;93843.00;;;10.24;57.01
4469;BME280;2247;42.666;23.292;2023-03-05T03:13:14;93836.50;;;10.17;57.60
4469;BME280;2247;42.666;23.292;2023-03-05T03:15:42;93840.41;;;10.19;57.42
4469;BME280;2247;42.666;23.292;2023-03-05T03:18:09;93826.63;;;10.04;57.43
4469;BME280;2247;42.666;23.292;2023-03-05T03:20:36;93845.81;;;10.04;57.63
4469;BME280;2247;42.666;23.292;2023-03-05T03:23:04;93826.81;;;9.88;57.85
4469;BME280;2247;42.666;23.292;2023-03-05T03:25:31;93838.84;;;9.95;57.57
4469;BME280;2247;42.666;23.292;2023-03-05T03:27:58;93845.03;;;10.04;57.91
4469;BME280;2247;42.666;23.292;2023-03-05T03:30:27;93851.44;;;9.98;57.85
4469;BME280;2247;42.666;23.292;2023-03-05T03:32:53;93854.94;;;10.12;57.71
4469;BME280;2247;42.666;23.292;2023-03-05T03:35:20;93845.22;;;10.12;57.22
4469;BME280;2247;42.666;23.292;2023-03-05T03:37:47;93841.63;;;10.03;57.46
4469;BME280;2247;42.666;23.292;2023-03-05T03:40:14;93850.00;;;10.34;57.11
4469;BME280;2247;42.666;23.292;2023-03-05T03:42:41;93856.56;;;10.55;56.10
4469;BME280;2247;42.666;23.292;2023-03-05T03:45:08;93850.88;;;10.67;56.13
4469;BME280;2247;42.666;23.292;2023-03-05T03:47:37;93858.06;;;10.61;55.65
4469;BME280;2247;42.666;23.292;2023-03-05T03:50:05;93852.88;;;10.56;56.11
4469;BME280;2247;42.666;23.292;2023-03-05T03:52:32;93855.06;;;10.49;55.77
4469;BME280;2247;42.666;23.292;2023-03-05T03:54:59;93855.19;;;10.39;56.54
4469;BME280;2247;42.666;23.292;2023-03-05T03:57:27;93851.50;;;10.40;56.45
4469;BME280;2247;42.666;23.292;2023-03-05T03:59:54;93856.25;;;10.38;56.42
4469;BME280;2247;42.666;23.292;2023-03-05T04:02:21;93862.19;;;10.25;56.64
4469;BME280;2247;42.666;23.292;2023-03-05T04:04:50;93862.28;;;10.20;56.63
4469;BME280;2247;42.666;23.292;2023-03-05T04:07:17;93864.41;;;10.13;56.88
4469;BME280;2247;42.666;23.292;2023-03-05T04:09:44;93860.50;;;10.10;56.71
4469;BME280;2247;42.666;23.292;2023-03-05T04:12:11;93861.94;;;10.26;56.59
4469;BME280;2247;42.666;23.292;2023-03-05T04:14:43;93860.09;;;10.27;56.38
4469;BME280;2247;42.666;23.292;2023-03-05T04:17:10;93868.34;;;10.39;56.22
4469;BME280;2247;42.666;23.292;2023-03-05T04:19:37;93870.69;;;10.22;56.39
4469;BME280;2247;42.666;23.292;2023-03-05T04:22:05;93862.28;;;10.20;56.32
4469;BME280;2247;42.666;23.292;2023-03-05T04:24:32;93866.91;;;10.28;56.26
4469;BME280;2247;42.666;23.292;2023-03-05T04:26:59;93866.75;;;10.19;56.67
4469;BME280;2247;42.666;23.292;2023-03-05T04:29:26;93866.66;;;10.30;56.25
4469;BME280;2247;42.666;23.292;2023-03-05T04:31:52;93865.72;;;10.39;56.21
4469;BME280;2247;42.666;23.292;2023-03-05T04:34:19;93859.66;;;10.62;54.59
4469;BME280;2247;42.666;23.292;2023-03-05T04:36:46;93861.56;;;10.57;54.94
4469;BME280;2247;42.666;23.292;2023-03-05T04:39:15;93860.19;;;10.59;54.95
4469;BME280;2247;42.666;23.292;2023-03-05T04:41:41;93859.72;;;10.57;55.16
4469;BME280;2247;42.666;23.292;2023-03-05T04:44:08;93855.44;;;10.61;54.99
4469;BME280;2247;42.666;23.292;2023-03-05T04:46:35;93855.78;;;10.74;54.71
4469;BME280;2247;42.666;23.292;2023-03-05T04:49:03;93852.25;;;10.83;54.27
4469;BME280;2247;42.666;23.292;2023-03-05T04:51:30;93852.72;;;10.66;54.72
4469;BME280;2247;42.666;23.292;2023-03-05T04:53:57;93854.09;;;10.83;53.87
4469;BME280;2247;42.666;23.292;2023-03-05T04:56:25;93855.66;;;10.84;53.75
4469;BME280;2247;42.666;23.292;2023-03-05T04:58:52;93844.41;;;10.78;53.97
4469;BME280;2247;42.666;23.292;2023-03-05T05:01:19;93848.47;;;10.71;54.33
4469;BME280;2247;42.666;23.292;2023-03-05T05:03:45;93850.75;;;10.77;53.72
4469;BME280;2247;42.666;23.292;2023-03-05T05:06:12;93844.53;;;10.68;53.97
4469;BME280;2247;42.666;23.292;2023-03-05T05:08:39;93851.19;;;10.84;53.62
4469;BME280;2247;42.666;23.292;2023-03-05T05:11:06;93854.56;;;10.66;53.43
4469;BME280;2247;42.666;23.292;2023-03-05T05:13:35;93858.72;;;10.72;53.32
4469;BME280;2247;42.666;23.292;2023-03-05T05:16:05;93863.25;;;10.66;53.34
4469;BME280;2247;42.666;23.292;2023-03-05T05:18:32;93859.50;;;10.73;52.94
4469;BME280;2247;42.666;23.292;2023-03-05T05:20:59;93862.28;;;10.81;52.74
4469;BME280;2247;42.666;23.292;2023-03-05T05:23:26;93862.63;;;10.93;52.51
4469;BME280;2247;42.666;23.292;2023-03-05T05:25:57;93861.50;;;10.81;52.74
4469;BME280;2247;42.666;23.292;2023-03-05T05:28:25;93866.75;;;10.81;52.65
4469;BME280;2247;42.666;23.292;2023-03-05T05:30:53;93858.31;;;10.84;52.07
4469;BME280;2247;42.666;23.292;2023-03-05T05:33:21;93860.34;;;10.87;51.97
4469;BME280;2247;42.666;23.292;2023-03-05T05:35:49;93857.59;;;10.97;51.94
4469;BME280;2247;42.666;23.292;2023-03-05T05:38:16;93862.78;;;11.02;51.57
4469;BME280;2247;42.666;23.292;2023-03-05T05:40:44;93850.59;;;10.87;51.96
4469;BME280;2247;42.666;23.292;2023-03-05T05:43:11;93857.66;;;10.92;51.19
4469;BME280;2247;42.666;23.292;2023-03-05T05:45:40;93845.13;;;10.84;50.78
4469;BME280;2247;42.666;23.292;2023-03-05T05:48:11;93865.78;;;10.95;50.53
4469;BME280;2247;42.666;23.292;2023-03-05T05:50:38;93871.28;;;10.99;51.04
4469;BME280;2247;42.666;23.292;2023-03-05T05:53:05;93865.06;;;10.90;50.48
4469;BME280;2247;42.666;23.292;2023-03-05T05:55:32;93868.91;;;11.16;49.56
4469;BME280;2247;42.666;23.292;2023-03-05T05:57:59;93869.88;;;11.20;49.08
4469;BME280;2247;42.666;23.292;2023-03-05T06:00:26;93868.91;;;11.16;49.31
4469;BME280;2247;42.666;23.292;2023-03-05T06:02:53;93878.66;;;11.16;49.00
4469;BME280;2247;42.666;23.292;2023-03-05T06:05:21;93882.94;;;11.12;48.94
4469;BME280;2247;42.666;23.292;2023-03-05T06:07:48;93884.94;;;11.01;48.89
4469;BME280;2247;42.666;23.292;2023-03-05T06:10:15;93885.13;;;11.23;48.61
4469;BME280;2247;42.666;23.292;2023-03-05T06:12:42;93886.91;;;11.28;48.96
4469;BME280;2247;42.666;23.292;2023-03-05T06:15:10;93891.13;;;11.10;48.37
4469;BME280;2247;42.666;23.292;2023-03-05T06:17:37;93895.00;;;10.99;48.43
4469;BME280;2247;42.666;23.292;2023-03-05T06:20:05;93882.47;;;10.91;48.82
4469;BME280;2247;42.666;23.292;2023-03-05T06:22:36;93886.06;;;10.95;48.56
4469;BME280;2247;42.666;23.292;2023-03-05T06:25:04;93893.03;;;10.67;48.12
4469;BME280;2247;42.666;23.292;2023-03-05T06:27:33;93901.25;;;10.84;47.55
4469;BME280;2247;42.666;23.292;2023-03-05T06:30:00;93899.63;;;10.88;47.72
4469;BME280;2247;42.666;23.292;2023-03-05T06:32:27;93890.72;;;10.84;46.95
4469;BME280;2247;42.666;23.292;2023-03-05T06:34:54;93894.25;;;10.75;47.87
4469;BME280;2247;42.666;23.292;2023-03-05T06:37:21;93900.16;;;10.66;47.26
4469;BME280;2247;42.666;23.292;2023-03-05T06:39:49;93902.16;;;10.75;47.74
4469;BME280;2247;42.666;23.292;2023-03-05T06:42:16;93898.31;;;10.86;47.09
4469;BME280;2247;42.666;23.292;2023-03-05T06:44:44;93900.75;;;10.82;47.07
4469;BME280;2247;42.666;23.292;2023-03-05T06:47:11;93897.91;;;11.16;46.72
4469;BME280;2247;42.666;23.292;2023-03-05T06:49:39;93903.38;;;11.38;45.75
4469;BME280;2247;42.666;23.292;2023-03-05T06:52:06;93900.16;;;11.41;45.67
4469;BME280;2247;42.666;23.292;2023-03-05T06:54:35;93904.44;;;11.37;45.45
4469;BME280;2247;42.666;23.292;2023-03-05T06:57:03;93903.44;;;11.52;44.87
4469;BME280;2247;42.666;23.292;2023-03-05T06:59:33;93901.41;;;11.63;44.91
4469;BME280;2247;42.666;23.292;2023-03-05T07:02:00;93907.75;;;11.62;44.69
4469;BME280;2247;42.666;23.292;2023-03-05T07:04:27;93898.75;;;11.63;44.35
4469;BME280;2247;42.666;23.292;2023-03-05T07:06:54;93908.38;;;11.72;44.33
4469;BME280;2247;42.666;23.292;2023-03-05T07:09:22;93896.03;;;11.87;43.95
4469;BME280;2247;42.666;23.292;2023-03-05T07:14:26;93913.66;;;12.05;43.24
4469;BME280;2247;42.666;23.292;2023-03-05T07:16:53;93907.31;;;12.06;43.46
4469;BME280;2247;42.666;23.292;2023-03-05T07:19:20;93900.47;;;12.32;43.67
4469;BME280;2247;42.666;23.292;2023-03-05T07:21:47;93901.88;;;12.57;42.33
4469;BME280;2247;42.666;23.292;2023-03-05T07:24:13;93898.53;;;12.65;42.61
4469;BME280;2247;42.666;23.292;2023-03-05T07:26:40;93903.00;;;12.92;41.92
4469;BME280;2247;42.666;23.292;2023-03-05T07:29:09;93902.28;;;13.00;41.20
4469;BME280;2247;42.666;23.292;2023-03-05T07:47:16;93884.09;;;12.98;41.52
4469;BME280;2247;42.666;23.292;2023-03-05T07:49:43;93894.19;;;12.83;42.93
4469;BME280;2247;42.666;23.292;2023-03-05T07:52:11;93898.66;;;12.96;43.04
4469;BME280;2247;42.666;23.292;2023-03-05T07:54:38;93894.16;;;12.96;42.82
4469;BME280;2247;42.666;23.292;2023-03-05T07:57:07;93889.81;;;13.14;42.95
4469;BME280;2247;42.666;23.292;2023-03-05T07:59:34;93892.56;;;13.09;42.50
4469;BME280;2247;42.666;23.292;2023-03-05T08:02:03;93904.34;;;13.17;42.62
4469;BME280;2247;42.666;23.292;2023-03-05T08:04:31;93896.91;;;13.41;42.31
4469;BME280;2247;42.666;23.292;2023-03-05T08:06:58;93898.78;;;13.40;42.71
4469;BME280;2247;42.666;23.292;2023-03-05T08:09:25;93893.34;;;13.23;42.58
4469;BME280;2247;42.666;23.292;2023-03-05T08:11:53;93891.63;;;12.91;42.44
4469;BME280;2247;42.666;23.292;2023-03-05T08:14:20;93897.38;;;12.93;42.48
4469;BME280;2247;42.666;23.292;2023-03-05T08:16:47;93884.22;;;12.66;43.15
4469;BME280;2247;42.666;23.292;2023-03-05T08:19:17;93891.66;;;12.78;43.09
4469;BME280;2247;42.666;23.292;2023-03-05T08:21:46;93888.72;;;12.52;43.94
4469;BME280;2247;42.666;23.292;2023-03-05T08:24:13;93888.34;;;12.45;44.08
4469;BME280;2247;42.666;23.292;2023-03-05T08:26:40;93895.00;;;12.56;44.09
4469;BME280;2247;42.666;23.292;2023-03-05T08:29:08;93889.81;;;12.65;43.89
4469;BME280;2247;42.666;23.292;2023-03-05T08:31:37;93895.16;;;12.73;43.75
4469;BME280;2247;42.666;23.292;2023-03-05T08:34:05;93889.81;;;12.78;44.04
4469;BME280;2247;42.666;23.292;2023-03-05T08:36:33;93885.38;;;12.74;44.08
4469;BME280;2247;42.666;23.292;2023-03-05T08:39:01;93883.25;;;12.62;44.52
4469;BME280;2247;42.666;23.292;2023-03-05T08:41:31;93881.97;;;12.46;44.88
4469;BME280;2247;42.666;23.292;2023-03-05T08:43:58;93871.91;;;12.34;44.95
4469;BME280;2247;42.666;23.292;2023-03-05T08:46:27;93876.50;;;12.15;44.00
4469;BME280;2247;42.666;23.292;2023-03-05T08:48:54;93879.16;;;12.15;44.42
4469;BME280;2247;42.666;23.292;2023-03-05T08:51:23;93880.34;;;12.22;44.98
4469;BME280;2247;42.666;23.292;2023-03-05T08:53:51;93868.69;;;12.37;44.37
4469;BME280;2247;42.666;23.292;2023-03-05T08:56:20;93866.22;;;12.41;44.07
4469;BME280;2247;42.666;23.292;2023-03-05T08:58:47;93874.06;;;12.46;43.28
4469;BME280;2247;42.666;23.292;2023-03-05T09:01:16;93856.44;;;12.55;43.33
4469;BME280;2247;42.666;23.292;2023-03-05T09:03:47;93844.47;;;12.71;42.56
4469;BME280;2247;42.666;23.292;2023-03-05T09:06:15;93859.91;;;12.91;42.38
4469;BME280;2247;42.666;23.292;2023-03-05T09:08:41;93849.91;;;12.88;42.80
4469;BME280;2247;42.666;23.292;2023-03-05T09:11:11;93858.44;;;12.85;43.90
4469;BME280;2247;42.666;23.292;2023-03-05T09:13:42;93850.91;;;12.92;42.21
4469;BME280;2247;42.666;23.292;2023-03-05T09:16:12;93851.03;;;13.10;42.59
4469;BME280;2247;42.666;23.292;2023-03-05T09:18:40;93856.59;;;13.08;41.10
4469;BME280;2247;42.666;23.292;2023-03-05T09:21:09;93846.78;;;12.86;40.70
4469;BME280;2247;42.666;23.292;2023-03-05T09:23:37;93848.19;;;12.70;41.06
4469;BME280;2247;42.666;23.292;2023-03-05T09:26:04;93845.56;;;12.70;41.20
4469;BME280;2247;42.666;23.292;2023-03-05T09:28:31;93847.38;;;12.83;41.19
4469;BME280;2247;42.666;23.292;2023-03-05T09:31:02;93831.47;;;12.61;40.45
4469;BME280;2247;42.666;23.292;2023-03-05T09:33:30;93839.38;;;12.75;40.18
4469;BME280;2247;42.666;23.292;2023-03-05T09:35:57;93808.88;;;12.55;39.58
4469;BME280;2247;42.666;23.292;2023-03-05T09:38:26;93837.91;;;12.69;40.23
4469;BME280;2247;42.666;23.292;2023-03-05T09:40:58;93834.81;;;12.89;39.97
4469;BME280;2247;42.666;23.292;2023-03-05T09:43:42;93832.75;;;12.99;39.42
4469;BME280;2247;42.666;23.292;2023-03-05T09:46:20;93830.56;;;13.01;39.13
4469;BME280;2247;42.666;23.292;2023-03-05T09:48:53;93828.53;;;12.98;39.68
4469;BME280;2247;42.666;23.292;2023-03-05T09:51:28;93820.28;;;13.14;39.52
4469;BME280;2247;42.666;23.292;2023-03-05T09:54:00;93816.03;;;12.90;38.61
4469;BME280;2247;42.666;23.292;2023-03-05T09:56:30;93812.78;;;12.93;38.28
4469;BME280;2247;42.666;23.292;2023-03-05T09:59:01;93808.38;;;12.89;38.24
4469;BME280;2247;42.666;23.292;2023-03-05T10:01:35;93814.66;;;12.79;37.78
4469;BME280;2247;42.666;23.292;2023-03-05T10:04:10;93800.78;;;12.74;37.41
4469;BME280;2247;42.666;23.292;2023-03-05T10:06:47;93806.78;;;12.66;37.71
4469;BME280;2247;42.666;23.292;2023-03-05T10:09:27;93802.09;;;12.62;38.10
4469;BME280;2247;42.666;23.292;2023-03-05T10:12:01;93809.00;;;12.86;41.06
4469;BME280;2247;42.666;23.292;2023-03-05T10:14:30;93807.81;;;12.92;38.33
4469;BME280;2247;42.666;23.292;2023-03-05T10:17:38;93800.75;;;12.87;38.53
4469;BME280;2247;42.666;23.292;2023-03-05T10:20:38;93786.31;;;12.71;38.81
4469;BME280;2247;42.666;23.292;2023-03-05T10:23:27;93778.53;;;12.52;39.09
4469;BME280;2247;42.666;23.292;2023-03-05T10:26:16;93781.47;;;12.51;39.16
4469;BME280;2247;42.666;23.292;2023-03-05T10:28:52;93788.97;;;12.71;39.32
4469;BME280;2247;42.666;23.292;2023-03-05T10:31:32;93779.19;;;12.72;38.19
4469;BME280;2247;42.666;23.292;2023-03-05T10:34:28;93770.38;;;12.62;38.48
4469;BME280;2247;42.666;23.292;2023-03-05T10:37:22;93761.09;;;12.65;38.67
4469;BME280;2247;42.666;23.292;2023-03-05T10:40:10;93743.69;;;12.50;37.66
4469;BME280;2247;42.666;23.292;2023-03-05T10:42:46;93742.13;;;12.49;37.90
4469;BME280;2247;42.666;23.292;2023-03-05T10:45:17;93738.16;;;12.60;37.93
4469;BME280;2247;42.666;23.292;2023-03-05T10:47:49;93744.84;;;12.58;37.98
4469;BME280;2247;42.666;23.292;2023-03-05T10:50:21;93751.28;;;12.88;37.28
4469;BME280;2247;42.666;23.292;2023-03-05T10:52:53;93729.72;;;12.50;37.60
4469;BME280;2247;42.666;23.292;2023-03-05T10:55:24;93723.34;;;12.51;38.04
4469;BME280;2247;42.666;23.292;2023-03-05T10:57:51;93742.22;;;12.80;37.73
4469;BME280;2247;42.666;23.292;2023-03-05T11:00:20;93739.81;;;12.70;37.12
4469;BME280;2247;42.666;23.292;2023-03-05T11:02:54;93739.31;;;12.68;37.08
4469;BME280;2247;42.666;23.292;2023-03-05T11:05:39;93726.34;;;12.58;37.88
4469;BME280;2247;42.666;23.292;2023-03-05T11:08:25;93724.44;;;12.72;37.85
4469;BME280;2247;42.666;23.292;2023-03-05T11:11:15;93720.34;;;12.66;38.00
4469;BME280;2247;42.666;23.292;2023-03-05T11:13:51;93723.47;;;12.68;38.10
4469;BME280;2247;42.666;23.292;2023-03-05T11:16:21;93713.38;;;12.70;37.64
4469;BME280;2247;42.666;23.292;2023-03-05T11:18:48;93709.81;;;12.52;38.50
4469;BME280;2247;42.666;23.292;2023-03-05T11:21:22;93711.84;;;12.33;38.65
4469;BME280;2247;42.666;23.292;2023-03-05T11:24:08;93705.06;;;12.41;38.99
4469;BME280;2247;42.666;23.292;2023-03-05T11:26:45;93697.75;;;12.24;38.58
4469;BME280;2247;42.666;23.292;2023-03-05T11:29:19;93695.19;;;12.33;38.58
4469;BME280;2247;42.666;23.292;2023-03-05T11:31:46;93710.22;;;12.23;39.13
4469;BME280;2247;42.666;23.292;2023-03-05T11:34:29;93698.81;;;12.37;38.98
4469;BME280;2247;42.666;23.292;2023-03-05T11:37:03;93697.88;;;12.55;38.49
4469;BME280;2247;42.666;23.292;2023-03-05T11:39:33;93693.91;;;12.66;39.03
4469;BME280;2247;42.666;23.292;2023-03-05T11:42:04;93686.28;;;12.65;38.99
4469;BME280;2247;42.666;23.292;2023-03-05T11:44:44;93683.69;;;12.73;39.40
4469;BME280;2247;42.666;23.292;2023-03-05T11:47:17;93680.28;;;12.50;39.84
4469;BME280;2247;42.666;23.292;2023-03-05T11:49:51;93665.06;;;12.34;39.95
4469;BME280;2247;42.666;23.292;2023-03-05T11:52:23;93658.78;;;12.43;40.21
4469;BME280;2247;42.666;23.292;2023-03-05T11:54:56;93659.06;;;12.64;39.60
4469;BME280;2247;42.666;23.292;2023-03-05T11:57:28;93668.81;;;12.77;39.50
4469;BME280;2247;42.666;23.292;2023-03-05T12:00:00;93653.81;;;12.95;38.96
4469;BME280;2247;42.666;23.292;2023-03-05T12:02:32;93656.50;;;13.03;38.68
4469;BME280;2247;42.666;23.292;2023-03-05T12:05:00;93653.94;;;12.68;38.84
4469;BME280;2247;42.666;23.292;2023-03-05T12:07:33;93637.22;;;12.50;39.62
4469;BME280;2247;42.666;23.292;2023-03-05T12:10:02;93642.31;;;12.69;39.07
4469;BME280;2247;42.666;23.292;2023-03-05T12:12:35;93644.00;;;12.95;39.02
4469;BME280;2247;42.666;23.292;2023-03-05T12:15:30;93635.47;;;13.29;37.78
4469;BME280;2247;42.666;23.292;2023-03-05T12:18:07;93640.34;;;13.05;38.85
4469;BME280;2247;42.666;23.292;2023-03-05T12:20:42;93649.78;;;12.97;39.16
4469;BME280;2247;42.666;23.292;2023-03-05T12:23:18;93634.31;;;12.82;40.13
4469;BME280;2247;42.666;23.292;2023-03-05T12:25:47;93632.38;;;12.74;40.32
4469;BME280;2247;42.666;23.292;2023-03-05T12:28:16;93604.44;;;12.51;40.51
4469;BME280;2247;42.666;23.292;2023-03-05T12:30:55;93613.53;;;12.45;40.67
4469;BME280;2247;42.666;23.292;2023-03-05T12:33:32;93622.31;;;12.54;40.63
4469;BME280;2247;42.666;23.292;2023-03-05T12:36:33;93606.16;;;12.55;40.07
4469;BME280;2247;42.666;23.292;2023-03-05T12:42:45;93602.59;;;12.60;39.71
4469;BME280;2247;42.666;23.292;2023-03-05T12:48:42;93601.97;;;12.85;39.11
4469;BME280;2247;42.666;23.292;2023-03-05T12:51:14;93601.50;;;13.14;38.60
4469;BME280;2247;42.666;23.292;2023-03-05T12:53:53;93593.47;;;12.97;39.11
4469;BME280;2247;42.666;23.292;2023-03-05T12:56:24;93579.97;;;13.07;38.68
4469;BME280;2247;42.666;23.292;2023-03-05T12:58:54;93597.31;;;13.22;38.15
4469;BME280;2247;42.666;23.292;2023-03-05T13:01:38;93585.66;;;13.23;38.17
4469;BME280;2247;42.666;23.292;2023-03-05T13:04:13;93583.88;;;13.10;38.03
4469;BME280;2247;42.666;23.292;2023-03-05T13:06:46;93582.59;;;13.07;38.38
4469;BME280;2247;42.666;23.292;2023-03-05T13:09:17;93590.59;;;13.16;38.32
4469;BME280;2247;42.666;23.292;2023-03-05T13:11:47;93563.97;;;13.12;38.20
4469;BME280;2247;42.666;23.292;2023-03-05T13:14:32;93583.31;;;13.13;37.66
4469;BME280;2247;42.666;23.292;2023-03-05T13:17:00;93591.66;;;13.06;38.29
4469;BME280;2247;42.666;23.292;2023-03-05T13:19:28;93578.72;;;13.05;38.56
4469;BME280;2247;42.666;23.292;2023-03-05T13:21:59;93576.97;;;13.00;38.49
4469;BME280;2247;42.666;23.292;2023-03-05T13:24:26;93564.63;;;12.78;38.19
4469;BME280;2247;42.666;23.292;2023-03-05T13:26:54;93580.94;;;12.80;38.00
4469;BME280;2247;42.666;23.292;2023-03-05T13:29:21;93585.78;;;12.56;38.59
4469;BME280;2247;42.666;23.292;2023-03-05T13:31:54;93577.38;;;12.54;38.86
4469;BME280;2247;42.666;23.292;2023-03-05T13:34:24;93580.28;;;12.44;38.87
4469;BME280;2247;42.666;23.292;2023-03-05T13:36:56;93575.31;;;12.42;38.76
4469;BME280;2247;42.666;23.292;2023-03-05T13:39:27;93583.38;;;12.46;38.73
4469;BME280;2247;42.666;23.292;2023-03-05T13:42:03;93567.19;;;12.39;38.91
4469;BME280;2247;42.666;23.292;2023-03-05T13:44:32;93585.75;;;12.47;38.70
4469;BME280;2247;42.666;23.292;2023-03-05T13:47:14;93582.03;;;12.48;38.84
4469;BME280;2247;42.666;23.292;2023-03-05T13:49:42;93588.03;;;12.40;38.96